sensor_id;sensor_type;location;lat;lon;timestamp;temperature;humidity
22984;DHT22;11658;48.908;9.140;2023-12-04T05:00:32;-4.00;99.90
22984;DHT22;11658;48.908;9.140;2023-12-04T05:03:04;-4.00;99.90
22984;DHT22;11658;48.908;9.140;2023-12-04T05:05:29;-3.70;99.90
22984;DHT22;11658;48.908;9.140;2023-12-04T05:07:55;-2.70;99.90
22984;DHT22;11658;48.908;9.140;2023-12-04T05:10:27;-2.10;99.90
22984;DHT22;11658;48.908;9.140;2023-12-04T05:12:52;-1.60;99.90
22984;DHT22;11658;48.908;9.140;2023-12-04T05:15:28;-3.40;99.90
22984;DHT22;11658;48.908;9.140;2023-12-04T05:17:57;-3.80;99.90
22984;DHT22;11658;48.908;9.140;2023-12-04T05:20:26;-3.70;99.90
22984;DHT22;11658;48.908;9.140;2023-12-04T05:22:56;-2.90;99.90
22984;DHT22;11658;48.908;9.140;2023-12-04T05:25:22;-2.20;99.90
22984;DHT22;11658;48.908;9.140;2023-12-04T05:27:51;-3.80;99.90
22984;DHT22;11658;48.908;9.140;2023-12-04T05:30:17;-1.30;99.90
22984;DHT22;11658;48.908;9.140;2023-12-04T05:32:48;-3.80;99.90
22984;DHT22;11658;48.908;9.140;2023-12-04T05:35:15;-4.40;99.90
22984;DHT22;11658;48.908;9.140;2023-12-04T05:37:53;-3.90;99.90
22984;DHT22;11658;48.908;9.140;2023-12-04T05:40:24;-1.80;99.90
22984;DHT22;11658;48.908;9.140;2023-12-04T05:42:53;-3.60;99.90
22984;DHT22;11658;48.908;9.140;2023-12-04T05:45:19;-4.30;99.90
22984;DHT22;11658;48.908;9.140;2023-12-04T05:47:55;-2.00;99.90
22984;DHT22;11658;48.908;9.140;2023-12-04T05:50:24;-3.70;99.90
22984;DHT22;11658;48.908;9.140;2023-12-04T05:52:52;-3.50;99.90
22984;DHT22;11658;48.908;9.140;2023-12-04T05:55:28;-4.40;99.90
22984;DHT22;11658;48.908;9.140;2023-12-04T05:58:12;-3.10;99.90
22984;DHT22;11658;48.908;9.140;2023-12-04T06:00:47;-1.40;99.90
22984;DHT22;11658;48.908;9.140;2023-12-04T06:03:15;-3.00;99.90
22984;DHT22;11658;48.908;9.140;2023-12-04T06:05:44;-3.70;99.90
22984;DHT22;11658;48.908;9.140;2023-12-04T06:08:10;-4.00;99.90
22984;DHT22;11658;48.908;9.140;2023-12-04T06:10:38;-3.90;99.90
22984;DHT22;11658;48.908;9.140;2023-12-04T06:13:10;-3.60;99.90
22984;DHT22;11658;48.908;9.140;2023-12-04T06:15:44;-2.00;99.90
22984;DHT22;11658;48.908;9.140;2023-12-04T06:18:13;-3.90;99.90
22984;DHT22;11658;48.908;9.140;2023-12-04T06:21:11;-4.20;99.90
22984;DHT22;11658;48.908;9.140;2023-12-04T06:23:43;-3.10;99.90
22984;DHT22;11658;48.908;9.140;2023-12-04T06:26:11;-4.10;99.90
22984;DHT22;11658;48.908;9.140;2023-12-04T06:28:55;-2.90;99.90
22984;DHT22;11658;48.908;9.140;2023-12-04T06:31:22;-4.70;99.90
22984;DHT22;11658;48.908;9.140;2023-12-04T06:33:50;-3.90;99.90
22984;DHT22;11658;48.908;9.140;2023-12-04T06:36:22;-5.30;99.90
22984;DHT22;11658;48.908;9.140;2023-12-04T06:38:59;-2.10;99.90
22984;DHT22;11658;48.908;9.140;2023-12-04T06:41:35;-2.00;99.90
22984;DHT22;11658;48.908;9.140;2023-12-04T06:44:08;-4.60;99.90
22984;DHT22;11658;48.908;9.140;2023-12-04T06:46:38;-4.70;99.90
22984;DHT22;11658;48.908;9.140;2023-12-04T06:49:09;-3.80;99.90
22984;DHT22;11658;48.908;9.140;2023-12-04T06:51:37;-2.30;99.90
22984;DHT22;11658;48.908;9.140;2023-12-04T06:54:05;-2.40;99.90
22984;DHT22;11658;48.908;9.140;2023-12-04T06:56:33;-3.60;99.90
22984;DHT22;11658;48.908;9.140;2023-12-04T06:59:04;-2.90;99.90
22984;DHT22;11658;48.908;9.140;2023-12-04T07:01:33;-4.10;99.90
22984;DHT22;11658;48.908;9.140;2023-12-04T07:03:59;-2.50;99.90
22984;DHT22;11658;48.908;9.140;2023-12-04T07:06:25;-1.80;99.90
22984;DHT22;11658;48.908;9.140;2023-12-04T07:08:53;-2.00;99.90
22984;DHT22;11658;48.908;9.140;2023-12-04T07:11:18;-4.00;99.90
22984;DHT22;11658;48.908;9.140;2023-12-04T07:13:44;-2.50;99.90
22984;DHT22;11658;48.908;9.140;2023-12-04T07:16:10;-4.40;99.90
22984;DHT22;11658;48.908;9.140;2023-12-04T07:18:36;-3.30;99.90
22984;DHT22;11658;48.908;9.140;2023-12-04T07:21:01;-4.10;99.90
22984;DHT22;11658;48.908;9.140;2023-12-04T07:23:28;-3.50;99.90
22984;DHT22;11658;48.908;9.140;2023-12-04T07:25:59;-3.70;99.90
22984;DHT22;11658;48.908;9.140;2023-12-04T07:28:25;-3.40;99.90
22984;DHT22;11658;48.908;9.140;2023-12-04T07:30:51;-1.60;99.90
22984;DHT22;11658;48.908;9.140;2023-12-04T07:33:16;-2.10;99.90
22984;DHT22;11658;48.908;9.140;2023-12-04T07:35:43;-2.50;99.90
22984;DHT22;11658;48.908;9.140;2023-12-04T07:38:14;-2.60;99.90
22984;DHT22;11658;48.908;9.140;2023-12-04T07:40:44;-2.30;99.90
22984;DHT22;11658;48.908;9.140;2023-12-04T07:43:10;-1.30;99.90
22984;DHT22;11658;48.908;9.140;2023-12-04T07:45:39;-2.60;99.90
22984;DHT22;11658;48.908;9.140;2023-12-04T07:48:05;-0.80;99.90
22984;DHT22;11658;48.908;9.140;2023-12-04T07:50:30;-2.80;99.90
22984;DHT22;11658;48.908;9.140;2023-12-04T07:52:56;-1.00;99.90
22984;DHT22;11658;48.908;9.140;2023-12-04T07:55:22;-1.20;99.90
22984;DHT22;11658;48.908;9.140;2023-12-04T07:57:48;-1.30;99.90
22984;DHT22;11658;48.908;9.140;2023-12-04T08:00:14;-1.00;99.90
22984;DHT22;11658;48.908;9.140;2023-12-04T08:02:41;-2.60;99.90
22984;DHT22;11658;48.908;9.140;2023-12-04T08:05:10;-0.90;99.90
22984;DHT22;11658;48.908;9.140;2023-12-04T08:07:35;-1.00;99.90
22984;DHT22;11658;48.908;9.140;2023-12-04T08:10:01;-2.70;99.90
22984;DHT22;11658;48.908;9.140;2023-12-04T08:12:27;-1.90;99.90
22984;DHT22;11658;48.908;9.140;2023-12-04T08:14:53;-1.30;99.90
22984;DHT22;11658;48.908;9.140;2023-12-04T08:17:21;-1.00;99.90
22984;DHT22;11658;48.908;9.140;2023-12-04T08:19:47;-1.10;99.90
22984;DHT22;11658;48.908;9.140;2023-12-04T08:22:12;-2.50;99.90
22984;DHT22;11658;48.908;9.140;2023-12-04T08:24:38;0.00;99.90
22984;DHT22;11658;48.908;9.140;2023-12-04T08:27:04;-2.30;99.90
22984;DHT22;11658;48.908;9.140;2023-12-04T08:29:29;-2.30;99.90
22984;DHT22;11658;48.908;9.140;2023-12-04T08:31:55;-2.20;99.90
22984;DHT22;11658;48.908;9.140;2023-12-04T08:34:21;-2.00;99.90
22984;DHT22;11658;48.908;9.140;2023-12-04T08:36:46;-2.30;99.90
22984;DHT22;11658;48.908;9.140;2023-12-04T08:39:12;0.10;99.90
22984;DHT22;11658;48.908;9.140;2023-12-04T08:41:38;-2.10;99.90
22984;DHT22;11658;48.908;9.140;2023-12-04T08:44:04;-0.70;99.90
22984;DHT22;11658;48.908;9.140;2023-12-04T08:46:29;0.00;99.90
22984;DHT22;11658;48.908;9.140;2023-12-04T08:48:55;-0.60;99.90
22984;DHT22;11658;48.908;9.140;2023-12-04T08:51:21;-1.80;99.90
22984;DHT22;11658;48.908;9.140;2023-12-04T08:53:46;-0.20;99.90
22984;DHT22;11658;48.908;9.140;2023-12-04T08:56:12;0.00;99.90
22984;DHT22;11658;48.908;9.140;2023-12-04T08:58:41;0.40;99.90
22984;DHT22;11658;48.908;9.140;2023-12-04T09:01:07;0.40;99.90
22984;DHT22;11658;48.908;9.140;2023-12-04T09:03:32;-1.60;99.90
22984;DHT22;11658;48.908;9.140;2023-12-04T09:05:58;-1.80;99.90
22984;DHT22;11658;48.908;9.140;2023-12-04T09:08:23;-1.80;99.90
22984;DHT22;11658;48.908;9.140;2023-12-04T09:10:52;0.30;99.90
22984;DHT22;11658;48.908;9.140;2023-12-04T09:13:17;-0.30;99.90
22984;DHT22;11658;48.908;9.140;2023-12-04T09:15:43;-2.10;99.90
22984;DHT22;11658;48.908;9.140;2023-12-04T09:18:08;-0.20;99.90
22984;DHT22;11658;48.908;9.140;2023-12-04T09:20:34;0.00;99.90
22984;DHT22;11658;48.908;9.140;2023-12-04T09:23:00;-1.40;99.90
22984;DHT22;11658;48.908;9.140;2023-12-04T09:25:25;0.80;99.90
22984;DHT22;11658;48.908;9.140;2023-12-04T09:27:51;0.40;99.90
22984;DHT22;11658;48.908;9.140;2023-12-04T09:30:17;-0.50;99.90
22984;DHT22;11658;48.908;9.140;2023-12-04T09:32:43;0.40;99.90
22984;DHT22;11658;48.908;9.140;2023-12-04T09:35:09;-1.50;99.90
22984;DHT22;11658;48.908;9.140;2023-12-04T09:37:34;0.40;99.90
22984;DHT22;11658;48.908;9.140;2023-12-04T09:40:00;0.30;99.90
22984;DHT22;11658;48.908;9.140;2023-12-04T09:42:26;-0.20;99.90
22984;DHT22;11658;48.908;9.140;2023-12-04T09:44:52;0.40;99.90
22984;DHT22;11658;48.908;9.140;2023-12-04T09:47:20;0.60;99.90
22984;DHT22;11658;48.908;9.140;2023-12-04T09:49:47;0.60;99.90
22984;DHT22;11658;48.908;9.140;2023-12-04T09:52:14;-1.10;99.90
22984;DHT22;11658;48.908;9.140;2023-12-04T09:54:40;-1.20;99.90
22984;DHT22;11658;48.908;9.140;2023-12-04T09:57:06;-1.10;99.90
22984;DHT22;11658;48.908;9.140;2023-12-04T09:59:32;0.50;99.90
22984;DHT22;11658;48.908;9.140;2023-12-04T10:01:59;-0.20;99.90
22984;DHT22;11658;48.908;9.140;2023-12-04T10:04:26;0.60;99.90
22984;DHT22;11658;48.908;9.140;2023-12-04T10:06:52;0.90;99.90
22984;DHT22;11658;48.908;9.140;2023-12-04T10:09:18;0.70;99.90
22984;DHT22;11658;48.908;9.140;2023-12-04T10:11:48;1.00;99.90
22984;DHT22;11658;48.908;9.140;2023-12-04T10:14:17;0.60;99.90
22984;DHT22;11658;48.908;9.140;2023-12-04T10:16:43;0.20;99.90
22984;DHT22;11658;48.908;9.140;2023-12-04T10:21:50;-1.10;99.90
22984;DHT22;11658;48.908;9.140;2023-12-04T10:24:36;-1.10;99.90
22984;DHT22;11658;48.908;9.140;2023-12-04T10:27:06;-1.00;99.90
22984;DHT22;11658;48.908;9.140;2023-12-04T10:29:48;-0.70;99.90
22984;DHT22;11658;48.908;9.140;2023-12-04T10:32:18;0.60;99.90
22984;DHT22;11658;48.908;9.140;2023-12-04T10:34:47;1.50;99.90
22984;DHT22;11658;48.908;9.140;2023-12-04T10:37:13;0.60;99.90
22984;DHT22;11658;48.908;9.140;2023-12-04T10:39:46;0.00;99.90
22984;DHT22;11658;48.908;9.140;2023-12-04T10:42:32;1.20;99.90
22984;DHT22;11658;48.908;9.140;2023-12-04T10:44:58;1.60;99.90
22984;DHT22;11658;48.908;9.140;2023-12-04T10:47:25;-0.30;99.90
22984;DHT22;11658;48.908;9.140;2023-12-04T10:49:51;-0.40;99.90
22984;DHT22;11658;48.908;9.140;2023-12-04T10:52:21;-0.60;99.90
22984;DHT22;11658;48.908;9.140;2023-12-04T10:54:52;-0.10;99.90
22984;DHT22;11658;48.908;9.140;2023-12-04T10:57:33;1.00;99.90
22984;DHT22;11658;48.908;9.140;2023-12-04T11:00:03;1.40;99.90
22984;DHT22;11658;48.908;9.140;2023-12-04T11:02:34;-0.60;99.90
22984;DHT22;11658;48.908;9.140;2023-12-04T11:05:07;-1.20;99.90
22984;DHT22;11658;48.908;9.140;2023-12-04T11:07:42;-0.80;99.90
22984;DHT22;11658;48.908;9.140;2023-12-04T11:10:11;-0.80;99.90
22984;DHT22;11658;48.908;9.140;2023-12-04T11:12:39;1.50;99.90
22984;DHT22;11658;48.908;9.140;2023-12-04T11:15:11;0.40;99.90
22984;DHT22;11658;48.908;9.140;2023-12-04T11:17:43;0.70;99.90
22984;DHT22;11658;48.908;9.140;2023-12-04T11:20:19;1.30;99.90
22984;DHT22;11658;48.908;9.140;2023-12-04T11:22:47;1.40;99.90
22984;DHT22;11658;48.908;9.140;2023-12-04T11:25:14;1.00;99.90
22984;DHT22;11658;48.908;9.140;2023-12-04T11:27:40;-0.60;99.90
22984;DHT22;11658;48.908;9.140;2023-12-04T11:30:07;-0.70;99.90
22984;DHT22;11658;48.908;9.140;2023-12-04T11:32:48;-0.50;99.90
22984;DHT22;11658;48.908;9.140;2023-12-04T11:35:17;-0.40;99.90
22984;DHT22;11658;48.908;9.140;2023-12-04T11:37:44;-0.40;99.90
22984;DHT22;11658;48.908;9.140;2023-12-04T11:40:15;-0.80;99.90
22984;DHT22;11658;48.908;9.140;2023-12-04T11:42:41;1.10;99.90
22984;DHT22;11658;48.908;9.140;2023-12-04T11:45:08;-0.60;99.90
22984;DHT22;11658;48.908;9.140;2023-12-04T11:47:56;-0.60;99.90
22984;DHT22;11658;48.908;9.140;2023-12-04T11:50:24;-0.70;99.90
22984;DHT22;11658;48.908;9.140;2023-12-04T11:52:51;1.00;99.90
22984;DHT22;11658;48.908;9.140;2023-12-04T11:55:23;-0.90;99.90
22984;DHT22;11658;48.908;9.140;2023-12-04T11:57:52;-0.30;99.90
22984;DHT22;11658;48.908;9.140;2023-12-04T12:00:20;1.40;99.90
22984;DHT22;11658;48.908;9.140;2023-12-04T12:05:20;0.50;99.90
22984;DHT22;11658;48.908;9.140;2023-12-04T12:07:47;1.70;99.90
22984;DHT22;11658;48.908;9.140;2023-12-04T12:10:13;0.10;99.90
22984;DHT22;11658;48.908;9.140;2023-12-04T12:12:40;1.00;99.90
22984;DHT22;11658;48.908;9.140;2023-12-04T12:15:10;-0.20;99.90
22984;DHT22;11658;48.908;9.140;2023-12-04T12:17:39;-0.20;99.90
22984;DHT22;11658;48.908;9.140;2023-12-04T12:22:34;-0.40;99.90
22984;DHT22;11658;48.908;9.140;2023-12-04T12:25:00;1.50;99.90
22984;DHT22;11658;48.908;9.140;2023-12-04T12:27:25;-0.30;99.90
22984;DHT22;11658;48.908;9.140;2023-12-04T12:29:51;0.20;99.90
22984;DHT22;11658;48.908;9.140;2023-12-04T12:32:17;0.90;99.90
22984;DHT22;11658;48.908;9.140;2023-12-04T12:34:42;1.80;99.90
22984;DHT22;11658;48.908;9.140;2023-12-04T12:37:09;-1.70;99.90
22984;DHT22;11658;48.908;9.140;2023-12-04T12:39:34;0.80;99.90
22984;DHT22;11658;48.908;9.140;2023-12-04T12:42:01;1.50;99.90
22984;DHT22;11658;48.908;9.140;2023-12-04T12:44:27;-0.70;99.90
22984;DHT22;11658;48.908;9.140;2023-12-04T12:46:53;0.50;99.90
22984;DHT22;11658;48.908;9.140;2023-12-04T12:49:19;1.10;99.90
22984;DHT22;11658;48.908;9.140;2023-12-04T12:51:48;1.30;99.90
22984;DHT22;11658;48.908;9.140;2023-12-04T12:54:13;0.60;99.90
22984;DHT22;11658;48.908;9.140;2023-12-04T12:56:40;1.00;99.90
22984;DHT22;11658;48.908;9.140;2023-12-04T12:59:06;2.00;99.90
22984;DHT22;11658;48.908;9.140;2023-12-04T13:01:32;1.50;99.90
22984;DHT22;11658;48.908;9.140;2023-12-04T13:03:59;0.20;99.90
22984;DHT22;11658;48.908;9.140;2023-12-04T13:06:29;0.60;99.90
22984;DHT22;11658;48.908;9.140;2023-12-04T13:08:54;1.50;99.90
22984;DHT22;11658;48.908;9.140;2023-12-04T13:11:20;2.20;99.90
22984;DHT22;11658;48.908;9.140;2023-12-04T13:13:46;0.50;99.90
22984;DHT22;11658;48.908;9.140;2023-12-04T13:16:12;1.90;99.90
22984;DHT22;11658;48.908;9.140;2023-12-04T13:18:37;0.00;99.90
22984;DHT22;11658;48.908;9.140;2023-12-04T13:21:04;0.50;99.90
22984;DHT22;11658;48.908;9.140;2023-12-04T13:23:30;-0.20;99.90
22984;DHT22;11658;48.908;9.140;2023-12-04T13:25:55;1.70;99.90
22984;DHT22;11658;48.908;9.140;2023-12-04T13:28:21;0.50;99.90
22984;DHT22;11658;48.908;9.140;2023-12-04T13:30:47;1.20;99.90
22984;DHT22;11658;48.908;9.140;2023-12-04T13:33:13;-0.70;99.90
22984;DHT22;11658;48.908;9.140;2023-12-04T13:35:39;-0.30;99.90
22984;DHT22;11658;48.908;9.140;2023-12-04T13:38:04;1.70;99.90
22984;DHT22;11658;48.908;9.140;2023-12-04T13:40:38;2.00;99.90
22984;DHT22;11658;48.908;9.140;2023-12-04T13:43:05;-0.20;99.90
22984;DHT22;11658;48.908;9.140;2023-12-04T13:45:49;1.50;99.90
22984;DHT22;11658;48.908;9.140;2023-12-04T13:48:16;1.60;99.90
22984;DHT22;11658;48.908;9.140;2023-12-04T13:50:43;-0.10;99.90
22984;DHT22;11658;48.908;9.140;2023-12-04T13:53:09;-0.10;99.90
22984;DHT22;11658;48.908;9.140;2023-12-04T13:55:34;0.40;99.90
22984;DHT22;11658;48.908;9.140;2023-12-04T13:58:29;1.00;99.90
22984;DHT22;11658;48.908;9.140;2023-12-04T14:01:06;2.10;99.90
22984;DHT22;11658;48.908;9.140;2023-12-04T14:03:47;0.10;99.90
22984;DHT22;11658;48.908;9.140;2023-12-04T14:06:13;0.10;99.90
22984;DHT22;11658;48.908;9.140;2023-12-04T14:08:40;0.10;99.90
22984;DHT22;11658;48.908;9.140;2023-12-04T14:11:08;0.20;99.90
22984;DHT22;11658;48.908;9.140;2023-12-04T14:13:35;2.00;99.90
22984;DHT22;11658;48.908;9.140;2023-12-04T14:16:01;2.10;99.90
22984;DHT22;11658;48.908;9.140;2023-12-04T14:18:29;2.20;99.90
22984;DHT22;11658;48.908;9.140;2023-12-04T14:20:58;0.10;99.90
22984;DHT22;11658;48.908;9.140;2023-12-04T14:23:24;2.10;99.90
22984;DHT22;11658;48.908;9.140;2023-12-04T14:25:50;2.20;99.90
22984;DHT22;11658;48.908;9.140;2023-12-04T14:28:16;1.00;99.90
22984;DHT22;11658;48.908;9.140;2023-12-04T14:30:45;1.30;99.90
22984;DHT22;11658;48.908;9.140;2023-12-04T14:33:10;1.80;99.90
22984;DHT22;11658;48.908;9.140;2023-12-04T14:35:36;0.00;99.90
22984;DHT22;11658;48.908;9.140;2023-12-04T14:38:03;0.80;99.90
22984;DHT22;11658;48.908;9.140;2023-12-04T14:40:30;2.00;99.90
22984;DHT22;11658;48.908;9.140;2023-12-04T14:42:56;1.80;99.90
22984;DHT22;11658;48.908;9.140;2023-12-04T14:45:21;1.40;99.90
22984;DHT22;11658;48.908;9.140;2023-12-04T14:47:47;1.20;99.90
22984;DHT22;11658;48.908;9.140;2023-12-04T14:50:13;1.50;99.90
22984;DHT22;11658;48.908;9.140;2023-12-04T14:52:42;1.50;99.90
22984;DHT22;11658;48.908;9.140;2023-12-04T14:55:15;1.00;99.90
22984;DHT22;11658;48.908;9.140;2023-12-04T14:57:53;2.10;99.90
22984;DHT22;11658;48.908;9.140;2023-12-04T15:00:37;0.90;99.90
22984;DHT22;11658;48.908;9.140;2023-12-04T15:03:21;1.80;99.90
22984;DHT22;11658;48.908;9.140;2023-12-04T15:06:16;-0.10;99.90
22984;DHT22;11658;48.908;9.140;2023-12-04T15:08:42;1.80;99.90
22984;DHT22;11658;48.908;9.140;2023-12-04T15:11:10;0.00;99.90
22984;DHT22;11658;48.908;9.140;2023-12-04T15:13:55;1.60;99.90
22984;DHT22;11658;48.908;9.140;2023-12-04T15:16:44;2.10;99.90
22984;DHT22;11658;48.908;9.140;2023-12-04T15:19:18;0.40;99.90
22984;DHT22;11658;48.908;9.140;2023-12-04T15:21:53;0.70;99.90
22984;DHT22;11658;48.908;9.140;2023-12-04T15:24:21;1.80;99.90
22984;DHT22;11658;48.908;9.140;2023-12-04T15:26:47;0.20;99.90
22984;DHT22;11658;48.908;9.140;2023-12-04T15:29:13;1.90;99.90
22984;DHT22;11658;48.908;9.140;2023-12-04T15:31:39;1.50;99.90
22984;DHT22;11658;48.908;9.140;2023-12-04T15:34:05;2.10;99.90
22984;DHT22;11658;48.908;9.140;2023-12-04T15:36:31;2.10;99.90
22984;DHT22;11658;48.908;9.140;2023-12-04T15:38:58;-0.40;99.90
22984;DHT22;11658;48.908;9.140;2023-12-04T15:41:25;-1.00;99.90
22984;DHT22;11658;48.908;9.140;2023-12-04T15:43:56;0.40;99.90
22984;DHT22;11658;48.908;9.140;2023-12-04T15:46:27;1.40;99.90
22984;DHT22;11658;48.908;9.140;2023-12-04T15:48:55;0.20;99.90
22984;DHT22;11658;48.908;9.140;2023-12-04T15:51:24;1.00;99.90
22984;DHT22;11658;48.908;9.140;2023-12-04T15:53:57;0.00;99.90
22984;DHT22;11658;48.908;9.140;2023-12-04T15:56:23;0.00;99.90
22984;DHT22;11658;48.908;9.140;2023-12-04T15:58:49;0.00;99.90
22984;DHT22;11658;48.908;9.140;2023-12-04T16:01:17;2.00;99.90
22984;DHT22;11658;48.908;9.140;2023-12-04T16:03:43;0.50;99.90
22984;DHT22;11658;48.908;9.140;2023-12-04T16:06:10;2.30;99.90
22984;DHT22;11658;48.908;9.140;2023-12-04T16:08:36;0.00;99.90
22984;DHT22;11658;48.908;9.140;2023-12-04T16:11:02;1.90;99.90
22984;DHT22;11658;48.908;9.140;2023-12-04T16:13:28;0.10;99.90
22984;DHT22;11658;48.908;9.140;2023-12-04T16:15:54;1.30;99.90
22984;DHT22;11658;48.908;9.140;2023-12-04T16:18:19;1.30;99.90
22984;DHT22;11658;48.908;9.140;2023-12-04T16:20:45;1.20;99.90
22984;DHT22;11658;48.908;9.140;2023-12-04T16:23:12;1.60;99.90
22984;DHT22;11658;48.908;9.140;2023-12-04T16:25:40;2.20;99.90
22984;DHT22;11658;48.908;9.140;2023-12-04T16:28:05;0.00;99.90
22984;DHT22;11658;48.908;9.140;2023-12-04T16:30:35;2.30;99.90
22984;DHT22;11658;48.908;9.140;2023-12-04T16:33:08;0.70;99.90
22984;DHT22;11658;48.908;9.140;2023-12-04T16:35:34;1.00;99.90
22984;DHT22;11658;48.908;9.140;2023-12-04T16:38:00;0.30;99.90
22984;DHT22;11658;48.908;9.140;2023-12-04T16:40:27;2.00;99.90
22984;DHT22;11658;48.908;9.140;2023-12-04T16:42:53;-0.90;99.90
22984;DHT22;11658;48.908;9.140;2023-12-04T16:45:19;0.40;99.90
22984;DHT22;11658;48.908;9.140;2023-12-04T16:47:46;1.70;99.90
22984;DHT22;11658;48.908;9.140;2023-12-04T16:50:22;0.50;99.90
22984;DHT22;11658;48.908;9.140;2023-12-04T16:52:49;0.70;99.90
22984;DHT22;11658;48.908;9.140;2023-12-04T16:55:15;2.60;99.90
22984;DHT22;11658;48.908;9.140;2023-12-04T16:57:41;1.70;99.90
22984;DHT22;11658;48.908;9.140;2023-12-04T17:00:12;2.30;99.90
22984;DHT22;11658;48.908;9.140;2023-12-04T17:02:43;0.50;99.90
22984;DHT22;11658;48.908;9.140;2023-12-04T17:05:12;0.50;99.90
22984;DHT22;11658;48.908;9.140;2023-12-04T17:07:46;1.20;99.90
22984;DHT22;11658;48.908;9.140;2023-12-04T17:10:12;0.40;99.90
22984;DHT22;11658;48.908;9.140;2023-12-04T17:12:38;1.80;99.90
22984;DHT22;11658;48.908;9.140;2023-12-04T17:15:14;2.10;99.90
22984;DHT22;11658;48.908;9.140;2023-12-04T17:17:41;0.50;99.90
22984;DHT22;11658;48.908;9.140;2023-12-04T17:20:10;0.70;99.90
22984;DHT22;11658;48.908;9.140;2023-12-04T17:22:37;0.50;99.90
22984;DHT22;11658;48.908;9.140;2023-12-04T17:25:03;1.10;99.90
22984;DHT22;11658;48.908;9.140;2023-12-04T17:27:29;0.50;99.90
22984;DHT22;11658;48.908;9.140;2023-12-04T17:29:57;1.60;99.90
22984;DHT22;11658;48.908;9.140;2023-12-04T17:32:29;1.10;99.90
22984;DHT22;11658;48.908;9.140;2023-12-04T17:34:55;1.50;99.90
22984;DHT22;11658;48.908;9.140;2023-12-04T17:37:21;2.30;99.90
22984;DHT22;11658;48.908;9.140;2023-12-04T17:39:47;2.40;99.90
22984;DHT22;11658;48.908;9.140;2023-12-04T17:42:22;0.50;99.90
22984;DHT22;11658;48.908;9.140;2023-12-04T17:44:48;0.70;99.90
22984;DHT22;11658;48.908;9.140;2023-12-04T17:47:14;1.40;99.90
22984;DHT22;11658;48.908;9.140;2023-12-04T17:49:40;0.40;99.90
22984;DHT22;11658;48.908;9.140;2023-12-04T17:52:06;0.20;99.90
22984;DHT22;11658;48.908;9.140;2023-12-04T17:54:35;0.90;99.90
22984;DHT22;11658;48.908;9.140;2023-12-04T17:57:07;0.90;99.90
22984;DHT22;11658;48.908;9.140;2023-12-04T17:59:33;0.50;99.90
22984;DHT22;11658;48.908;9.140;2023-12-04T18:01:59;0.60;99.90
22984;DHT22;11658;48.908;9.140;2023-12-04T18:04:24;1.00;99.90
22984;DHT22;11658;48.908;9.140;2023-12-04T18:06:51;1.80;99.90
22984;DHT22;11658;48.908;9.140;2023-12-04T18:09:16;2.00;99.90
22984;DHT22;11658;48.908;9.140;2023-12-04T18:11:42;1.70;99.90
22984;DHT22;11658;48.908;9.140;2023-12-04T18:14:08;1.60;99.90
22984;DHT22;11658;48.908;9.140;2023-12-04T18:16:33;1.40;99.90
22984;DHT22;11658;48.908;9.140;2023-12-04T18:18:59;2.50;99.90
22984;DHT22;11658;48.908;9.140;2023-12-04T18:21:25;1.40;99.90
22984;DHT22;11658;48.908;9.140;2023-12-04T18:23:53;-1.00;99.90
22984;DHT22;11658;48.908;9.140;2023-12-04T18:26:19;1.80;99.90
22984;DHT22;11658;48.908;9.140;2023-12-04T18:28:45;0.30;99.90
22984;DHT22;11658;48.908;9.140;2023-12-04T18:31:16;0.20;99.90
22984;DHT22;11658;48.908;9.140;2023-12-04T18:33:44;0.10;99.90
22984;DHT22;11658;48.908;9.140;2023-12-04T18:36:11;0.30;99.90
22984;DHT22;11658;48.908;9.140;2023-12-04T18:38:53;-0.10;99.90
22984;DHT22;11658;48.908;9.140;2023-12-04T18:41:24;0.10;99.90
22984;DHT22;11658;48.908;9.140;2023-12-04T18:43:53;0.00;99.90
22984;DHT22;11658;48.908;9.140;2023-12-04T18:46:24;0.00;99.90
22984;DHT22;11658;48.908;9.140;2023-12-04T18:48:57;0.00;99.90
22984;DHT22;11658;48.908;9.140;2023-12-04T18:51:28;0.20;99.90
22984;DHT22;11658;48.908;9.140;2023-12-04T18:53:57;0.10;99.90
22984;DHT22;11658;48.908;9.140;2023-12-04T18:56:28;1.10;99.90
22984;DHT22;11658;48.908;9.140;2023-12-04T18:58:57;0.20;99.90
22984;DHT22;11658;48.908;9.140;2023-12-04T19:01:23;0.30;99.90
22984;DHT22;11658;48.908;9.140;2023-12-04T19:03:52;0.40;99.90
22984;DHT22;11658;48.908;9.140;2023-12-04T19:06:21;0.30;99.90
22984;DHT22;11658;48.908;9.140;2023-12-04T19:08:50;0.40;99.90
22984;DHT22;11658;48.908;9.140;2023-12-04T19:11:16;0.30;99.90
22984;DHT22;11658;48.908;9.140;2023-12-04T19:13:41;2.30;99.90
22984;DHT22;11658;48.908;9.140;2023-12-04T19:16:07;0.70;99.90
22984;DHT22;11658;48.908;9.140;2023-12-04T19:18:33;0.60;99.90
22984;DHT22;11658;48.908;9.140;2023-12-04T19:20:59;2.50;99.90
22984;DHT22;11658;48.908;9.140;2023-12-04T19:23:25;1.80;99.90
22984;DHT22;11658;48.908;9.140;2023-12-04T19:25:50;2.00;99.90
22984;DHT22;11658;48.908;9.140;2023-12-04T19:28:16;1.20;99.90
22984;DHT22;11658;48.908;9.140;2023-12-04T19:30:42;2.70;99.90
22984;DHT22;11658;48.908;9.140;2023-12-04T19:33:08;0.70;99.90
22984;DHT22;11658;48.908;9.140;2023-12-04T19:35:33;2.80;99.90
22984;DHT22;11658;48.908;9.140;2023-12-04T19:38:01;0.80;99.90
22984;DHT22;11658;48.908;9.140;2023-12-04T19:40:29;0.70;99.90
22984;DHT22;11658;48.908;9.140;2023-12-04T19:42:55;1.10;99.90
22984;DHT22;11658;48.908;9.140;2023-12-04T19:45:20;2.80;99.90
22984;DHT22;11658;48.908;9.140;2023-12-04T19:47:46;2.80;99.90
22984;DHT22;11658;48.908;9.140;2023-12-04T19:50:14;0.80;99.90
22984;DHT22;11658;48.908;9.140;2023-12-04T19:52:40;0.80;99.90
22984;DHT22;11658;48.908;9.140;2023-12-04T19:55:06;2.80;99.90
22984;DHT22;11658;48.908;9.140;2023-12-04T19:57:35;0.90;99.90
22984;DHT22;11658;48.908;9.140;2023-12-04T20:00:03;0.40;99.90
22984;DHT22;11658;48.908;9.140;2023-12-04T20:02:31;1.10;99.90
22984;DHT22;11658;48.908;9.140;2023-12-04T20:04:58;3.20;99.90
22984;DHT22;11658;48.908;9.140;2023-12-04T20:07:23;2.70;99.90
22984;DHT22;11658;48.908;9.140;2023-12-04T20:09:49;1.50;99.90
22984;DHT22;11658;48.908;9.140;2023-12-04T20:12:14;2.90;99.90
22984;DHT22;11658;48.908;9.140;2023-12-04T20:14:40;2.50;99.90
22984;DHT22;11658;48.908;9.140;2023-12-04T20:17:06;0.90;99.90
22984;DHT22;11658;48.908;9.140;2023-12-04T20:19:32;2.50;99.90
22984;DHT22;11658;48.908;9.140;2023-12-04T20:21:57;1.00;99.90
22984;DHT22;11658;48.908;9.140;2023-12-04T20:24:26;2.20;99.90
22984;DHT22;11658;48.908;9.140;2023-12-04T20:26:51;1.00;99.90
22984;DHT22;11658;48.908;9.140;2023-12-04T20:29:17;1.00;99.90
22984;DHT22;11658;48.908;9.140;2023-12-04T20:31:46;2.20;99.90
22984;DHT22;11658;48.908;9.140;2023-12-04T20:34:11;2.20;99.90
22984;DHT22;11658;48.908;9.140;2023-12-04T20:36:37;2.80;99.90
22984;DHT22;11658;48.908;9.140;2023-12-04T20:39:04;2.60;99.90
22984;DHT22;11658;48.908;9.140;2023-12-04T20:41:31;2.70;99.90
22984;DHT22;11658;48.908;9.140;2023-12-04T20:43:56;3.00;99.90
22984;DHT22;11658;48.908;9.140;2023-12-04T20:46:22;2.50;99.90
22984;DHT22;11658;48.908;9.140;2023-12-04T20:48:48;1.10;99.90
22984;DHT22;11658;48.908;9.140;2023-12-04T20:51:16;3.10;99.90
22984;DHT22;11658;48.908;9.140;2023-12-04T20:53:42;2.80;99.90